sensor_id;sensor_type;location;lat;lon;timestamp;temperature;humidity
81726;DHT22;71135;16.738;-14.648;2023-09-12T00:00:16;21.50;72.00
81726;DHT22;71135;16.738;-14.648;2023-09-12T00:02:45;21.50;72.10
81726;DHT22;71135;16.738;-14.648;2023-09-12T00:05:14;21.50;72.20
81726;DHT22;71135;16.738;-14.648;2023-09-12T00:07:51;21.50;72.20
81726;DHT22;71135;16.738;-14.648;2023-09-12T00:10:21;21.40;72.20
81726;DHT22;71135;16.738;-14.648;2023-09-12T00:12:51;21.50;72.30
81726;DHT22;71135;16.738;-14.648;2023-09-12T00:15:20;21.50;72.30
81726;DHT22;71135;16.738;-14.648;2023-09-12T00:17:49;21.50;72.30
81726;DHT22;71135;16.738;-14.648;2023-09-12T00:20:18;21.40;72.40
81726;DHT22;71135;16.738;-14.648;2023-09-12T00:22:50;21.40;72.40
81726;DHT22;71135;16.738;-14.648;2023-09-12T00:25:20;21.40;72.40
81726;DHT22;71135;16.738;-14.648;2023-09-12T00:27:50;21.40;72.30
81726;DHT22;71135;16.738;-14.648;2023-09-12T00:30:19;21.40;72.30
81726;DHT22;71135;16.738;-14.648;2023-09-12T00:32:48;21.40;72.30
81726;DHT22;71135;16.738;-14.648;2023-09-12T00:35:17;21.40;72.20
81726;DHT22;71135;16.738;-14.648;2023-09-12T00:37:46;21.30;72.30
81726;DHT22;71135;16.738;-14.648;2023-09-12T00:40:18;21.30;72.20
81726;DHT22;71135;16.738;-14.648;2023-09-12T00:42:47;21.30;72.20
81726;DHT22;71135;16.738;-14.648;2023-09-12T00:45:17;21.20;72.20
81726;DHT22;71135;16.738;-14.648;2023-09-12T00:47:46;21.10;72.20
81726;DHT22;71135;16.738;-14.648;2023-09-12T00:50:16;21.10;72.20
81726;DHT22;71135;16.738;-14.648;2023-09-12T00:52:47;21.10;72.20
81726;DHT22;71135;16.738;-14.648;2023-09-12T00:55:19;21.10;72.20
81726;DHT22;71135;16.738;-14.648;2023-09-12T00:57:49;21.10;72.20
81726;DHT22;71135;16.738;-14.648;2023-09-12T01:00:18;21.10;72.10
81726;DHT22;71135;16.738;-14.648;2023-09-12T01:02:47;21.00;72.10
81726;DHT22;71135;16.738;-14.648;2023-09-12T01:05:19;21.00;72.10
81726;DHT22;71135;16.738;-14.648;2023-09-12T01:07:49;21.00;72.00
81726;DHT22;71135;16.738;-14.648;2023-09-12T01:10:21;20.90;72.00
81726;DHT22;71135;16.738;-14.648;2023-09-12T01:12:51;20.90;72.10
81726;DHT22;71135;16.738;-14.648;2023-09-12T01:15:21;20.90;72.00
81726;DHT22;71135;16.738;-14.648;2023-09-12T01:17:50;20.80;72.00
81726;DHT22;71135;16.738;-14.648;2023-09-12T01:20:24;20.80;72.00
81726;DHT22;71135;16.738;-14.648;2023-09-12T01:23:08;20.80;71.90
81726;DHT22;71135;16.738;-14.648;2023-09-12T01:28:51;20.70;71.80
81726;DHT22;71135;16.738;-14.648;2023-09-12T01:31:20;20.60;71.90
81726;DHT22;71135;16.738;-14.648;2023-09-12T01:33:55;20.60;71.90
81726;DHT22;71135;16.738;-14.648;2023-09-12T01:36:24;20.60;71.90
81726;DHT22;71135;16.738;-14.648;2023-09-12T01:38:53;20.50;71.90
81726;DHT22;71135;16.738;-14.648;2023-09-12T01:41:23;20.50;72.00
81726;DHT22;71135;16.738;-14.648;2023-09-12T01:43:55;20.50;72.00
81726;DHT22;71135;16.738;-14.648;2023-09-12T01:46:25;20.50;72.10
81726;DHT22;71135;16.738;-14.648;2023-09-12T01:48:56;20.50;72.10
81726;DHT22;71135;16.738;-14.648;2023-09-12T01:51:28;20.50;72.20
81726;DHT22;71135;16.738;-14.648;2023-09-12T01:53:58;20.50;72.20
81726;DHT22;71135;16.738;-14.648;2023-09-12T01:56:29;20.40;72.20
81726;DHT22;71135;16.738;-14.648;2023-09-12T01:59:02;20.40;72.20
81726;DHT22;71135;16.738;-14.648;2023-09-12T02:01:32;20.40;72.30
81726;DHT22;71135;16.738;-14.648;2023-09-12T02:04:01;20.40;72.40
81726;DHT22;71135;16.738;-14.648;2023-09-12T02:06:34;20.40;72.50
81726;DHT22;71135;16.738;-14.648;2023-09-12T02:09:04;20.40;72.50
81726;DHT22;71135;16.738;-14.648;2023-09-12T02:11:34;20.40;72.50
81726;DHT22;71135;16.738;-14.648;2023-09-12T02:14:05;20.40;72.50
81726;DHT22;71135;16.738;-14.648;2023-09-12T02:16:38;20.40;72.50
81726;DHT22;71135;16.738;-14.648;2023-09-12T02:19:07;20.40;72.60
81726;DHT22;71135;16.738;-14.648;2023-09-12T02:21:36;20.40;72.60
81726;DHT22;71135;16.738;-14.648;2023-09-12T02:24:06;20.40;72.70
81726;DHT22;71135;16.738;-14.648;2023-09-12T02:26:35;20.40;72.70
81726;DHT22;71135;16.738;-14.648;2023-09-12T02:29:07;20.40;72.70
81726;DHT22;71135;16.738;-14.648;2023-09-12T02:31:36;20.40;72.80
81726;DHT22;71135;16.738;-14.648;2023-09-12T02:34:07;20.40;72.80
81726;DHT22;71135;16.738;-14.648;2023-09-12T02:36:36;20.40;72.80
81726;DHT22;71135;16.738;-14.648;2023-09-12T02:39:06;20.40;72.80
81726;DHT22;71135;16.738;-14.648;2023-09-12T02:41:35;20.40;72.80
81726;DHT22;71135;16.738;-14.648;2023-09-12T02:44:07;20.50;72.80
81726;DHT22;71135;16.738;-14.648;2023-09-12T02:46:36;20.40;72.80
81726;DHT22;71135;16.738;-14.648;2023-09-12T02:49:05;20.40;72.80
81726;DHT22;71135;16.738;-14.648;2023-09-12T02:51:38;20.40;72.90
81726;DHT22;71135;16.738;-14.648;2023-09-12T02:54:08;20.50;72.90
81726;DHT22;71135;16.738;-14.648;2023-09-12T02:56:37;20.40;73.00
81726;DHT22;71135;16.738;-14.648;2023-09-12T02:59:09;20.50;73.00
81726;DHT22;71135;16.738;-14.648;2023-09-12T03:01:38;20.50;73.00
81726;DHT22;71135;16.738;-14.648;2023-09-12T03:04:08;20.40;73.00
81726;DHT22;71135;16.738;-14.648;2023-09-12T03:06:37;20.50;73.00
81726;DHT22;71135;16.738;-14.648;2023-09-12T03:09:06;20.50;73.00
81726;DHT22;71135;16.738;-14.648;2023-09-12T03:11:37;20.50;72.90
81726;DHT22;71135;16.738;-14.648;2023-09-12T03:14:09;20.40;72.90
81726;DHT22;71135;16.738;-14.648;2023-09-12T03:16:39;20.40;72.90
81726;DHT22;71135;16.738;-14.648;2023-09-12T03:19:10;20.40;72.90
81726;DHT22;71135;16.738;-14.648;2023-09-12T03:21:40;20.40;72.90
81726;DHT22;71135;16.738;-14.648;2023-09-12T03:24:09;20.40;73.00
81726;DHT22;71135;16.738;-14.648;2023-09-12T03:26:38;20.40;73.00
81726;DHT22;71135;16.738;-14.648;2023-09-12T03:29:10;20.40;73.10
81726;DHT22;71135;16.738;-14.648;2023-09-12T03:31:39;20.40;73.10
81726;DHT22;71135;16.738;-14.648;2023-09-12T03:34:09;20.40;73.10
81726;DHT22;71135;16.738;-14.648;2023-09-12T03:36:38;20.40;73.00
81726;DHT22;71135;16.738;-14.648;2023-09-12T03:39:07;20.40;73.10
81726;DHT22;71135;16.738;-14.648;2023-09-12T03:41:39;20.30;73.10
81726;DHT22;71135;16.738;-14.648;2023-09-12T03:44:11;20.30;73.20
81726;DHT22;71135;16.738;-14.648;2023-09-12T03:46:40;20.30;73.20
81726;DHT22;71135;16.738;-14.648;2023-09-12T03:49:09;20.30;73.20
81726;DHT22;71135;16.738;-14.648;2023-09-12T03:51:39;20.30;73.30
81726;DHT22;71135;16.738;-14.648;2023-09-12T03:54:09;20.30;73.20
81726;DHT22;71135;16.738;-14.648;2023-09-12T03:56:38;20.30;73.20
81726;DHT22;71135;16.738;-14.648;2023-09-12T03:59:07;20.30;73.20
81726;DHT22;71135;16.738;-14.648;2023-09-12T04:01:39;20.30;73.20
81726;DHT22;71135;16.738;-14.648;2023-09-12T04:04:08;20.30;73.30
81726;DHT22;71135;16.738;-14.648;2023-09-12T04:06:37;20.30;73.30
81726;DHT22;71135;16.738;-14.648;2023-09-12T04:09:06;20.30;73.20
81726;DHT22;71135;16.738;-14.648;2023-09-12T04:11:35;20.30;73.20
81726;DHT22;71135;16.738;-14.648;2023-09-12T04:14:05;20.30;73.20
81726;DHT22;71135;16.738;-14.648;2023-09-12T04:16:34;20.30;73.30
81726;DHT22;71135;16.738;-14.648;2023-09-12T04:19:06;20.30;73.30
81726;DHT22;71135;16.738;-14.648;2023-09-12T04:21:35;20.30;73.40
81726;DHT22;71135;16.738;-14.648;2023-09-12T04:24:05;20.30;73.40
81726;DHT22;71135;16.738;-14.648;2023-09-12T04:26:35;20.30;73.50
81726;DHT22;71135;16.738;-14.648;2023-09-12T04:29:04;20.30;73.40
81726;DHT22;71135;16.738;-14.648;2023-09-12T04:31:33;20.30;73.50
81726;DHT22;71135;16.738;-14.648;2023-09-12T04:34:05;20.30;73.50
81726;DHT22;71135;16.738;-14.648;2023-09-12T04:36:34;20.30;73.50
81726;DHT22;71135;16.738;-14.648;2023-09-12T04:39:04;20.30;73.50
81726;DHT22;71135;16.738;-14.648;2023-09-12T04:41:34;20.30;73.50
81726;DHT22;71135;16.738;-14.648;2023-09-12T04:44:04;20.30;73.40
81726;DHT22;71135;16.738;-14.648;2023-09-12T04:46:34;20.30;73.40
81726;DHT22;71135;16.738;-14.648;2023-09-12T04:49:06;20.30;73.50
81726;DHT22;71135;16.738;-14.648;2023-09-12T04:51:35;20.30;73.50
81726;DHT22;71135;16.738;-14.648;2023-09-12T04:54:05;20.30;73.50
81726;DHT22;71135;16.738;-14.648;2023-09-12T04:56:34;20.30;73.40
81726;DHT22;71135;16.738;-14.648;2023-09-12T04:59:04;20.30;73.40
81726;DHT22;71135;16.738;-14.648;2023-09-12T05:01:33;20.30;73.40
81726;DHT22;71135;16.738;-14.648;2023-09-12T05:04:03;20.30;73.30
81726;DHT22;71135;16.738;-14.648;2023-09-12T05:06:35;20.30;73.30
81726;DHT22;71135;16.738;-14.648;2023-09-12T05:09:04;20.30;73.30
81726;DHT22;71135;16.738;-14.648;2023-09-12T05:11:35;20.30;73.30
81726;DHT22;71135;16.738;-14.648;2023-09-12T05:14:04;20.30;73.30
81726;DHT22;71135;16.738;-14.648;2023-09-12T05:16:33;20.30;73.30
81726;DHT22;71135;16.738;-14.648;2023-09-12T05:19:03;20.30;73.30
81726;DHT22;71135;16.738;-14.648;2023-09-12T05:21:35;20.30;73.40
81726;DHT22;71135;16.738;-14.648;2023-09-12T05:24:06;20.30;73.40
81726;DHT22;71135;16.738;-14.648;2023-09-12T05:26:35;20.30;73.30
81726;DHT22;71135;16.738;-14.648;2023-09-12T05:29:04;20.30;73.30
81726;DHT22;71135;16.738;-14.648;2023-09-12T05:31:34;20.30;73.30
81726;DHT22;71135;16.738;-14.648;2023-09-12T05:34:03;20.30;73.30
81726;DHT22;71135;16.738;-14.648;2023-09-12T05:36:35;20.30;73.40
81726;DHT22;71135;16.738;-14.648;2023-09-12T05:39:04;20.30;73.40
81726;DHT22;71135;16.738;-14.648;2023-09-12T05:41:33;20.30;73.40
81726;DHT22;71135;16.738;-14.648;2023-09-12T05:44:03;20.30;73.40
81726;DHT22;71135;16.738;-14.648;2023-09-12T05:46:33;20.30;73.50
81726;DHT22;71135;16.738;-14.648;2023-09-12T05:49:02;20.30;73.50
81726;DHT22;71135;16.738;-14.648;2023-09-12T05:51:34;20.30;73.50
81726;DHT22;71135;16.738;-14.648;2023-09-12T05:54:04;20.30;73.50
81726;DHT22;71135;16.738;-14.648;2023-09-12T05:56:34;20.30;73.60
81726;DHT22;71135;16.738;-14.648;2023-09-12T05:59:03;20.30;73.60
81726;DHT22;71135;16.738;-14.648;2023-09-12T06:01:32;20.30;73.60
81726;DHT22;71135;16.738;-14.648;2023-09-12T06:04:02;20.30;73.60
81726;DHT22;71135;16.738;-14.648;2023-09-12T06:06:31;20.30;73.60
81726;DHT22;71135;16.738;-14.648;2023-09-12T06:09:03;20.30;73.60
81726;DHT22;71135;16.738;-14.648;2023-09-12T06:11:32;20.30;73.60
81726;DHT22;71135;16.738;-14.648;2023-09-12T06:14:01;20.40;73.70
81726;DHT22;71135;16.738;-14.648;2023-09-12T06:16:30;20.50;73.80
81726;DHT22;71135;16.738;-14.648;2023-09-12T06:18:59;20.50;73.80
81726;DHT22;71135;16.738;-14.648;2023-09-12T06:21:29;20.50;73.80
81726;DHT22;71135;16.738;-14.648;2023-09-12T06:24:14;20.50;73.80
81726;DHT22;71135;16.738;-14.648;2023-09-12T06:26:43;20.60;73.80
81726;DHT22;71135;16.738;-14.648;2023-09-12T06:29:13;20.60;73.80
81726;DHT22;71135;16.738;-14.648;2023-09-12T06:31:42;20.60;73.70
81726;DHT22;71135;16.738;-14.648;2023-09-12T06:34:11;20.70;73.70
81726;DHT22;71135;16.738;-14.648;2023-09-12T06:36:40;20.70;73.70
81726;DHT22;71135;16.738;-14.648;2023-09-12T06:39:13;20.70;73.60
81726;DHT22;71135;16.738;-14.648;2023-09-12T06:41:42;20.70;73.60
81726;DHT22;71135;16.738;-14.648;2023-09-12T06:44:12;20.70;73.60
81726;DHT22;71135;16.738;-14.648;2023-09-12T06:46:41;20.80;73.80
81726;DHT22;71135;16.738;-14.648;2023-09-12T06:49:10;20.80;73.80
81726;DHT22;71135;16.738;-14.648;2023-09-12T06:51:39;20.80;73.70
81726;DHT22;71135;16.738;-14.648;2023-09-12T06:54:09;20.80;73.60
81726;DHT22;71135;16.738;-14.648;2023-09-12T06:56:41;20.80;73.60
81726;DHT22;71135;16.738;-14.648;2023-09-12T06:59:11;20.90;73.60
81726;DHT22;71135;16.738;-14.648;2023-09-12T07:01:40;20.90;73.60
81726;DHT22;71135;16.738;-14.648;2023-09-12T07:04:09;20.90;73.60
81726;DHT22;71135;16.738;-14.648;2023-09-12T07:06:39;21.00;73.50
81726;DHT22;71135;16.738;-14.648;2023-09-12T07:09:08;21.00;73.40
81726;DHT22;71135;16.738;-14.648;2023-09-12T07:11:43;21.00;73.40
81726;DHT22;71135;16.738;-14.648;2023-09-12T07:14:12;21.10;73.50
81726;DHT22;71135;16.738;-14.648;2023-09-12T07:16:41;21.10;73.50
81726;DHT22;71135;16.738;-14.648;2023-09-12T07:19:10;21.10;73.50
81726;DHT22;71135;16.738;-14.648;2023-09-12T07:21:39;21.20;73.50
81726;DHT22;71135;16.738;-14.648;2023-09-12T07:24:09;21.30;73.50
81726;DHT22;71135;16.738;-14.648;2023-09-12T07:26:38;21.40;73.40
81726;DHT22;71135;16.738;-14.648;2023-09-12T07:29:10;21.40;73.50
81726;DHT22;71135;16.738;-14.648;2023-09-12T07:31:39;21.50;73.50
81726;DHT22;71135;16.738;-14.648;2023-09-12T07:34:08;21.60;73.30
81726;DHT22;71135;16.738;-14.648;2023-09-12T07:36:40;21.70;73.20
81726;DHT22;71135;16.738;-14.648;2023-09-12T07:39:10;21.70;73.00
81726;DHT22;71135;16.738;-14.648;2023-09-12T07:41:39;21.90;72.80
81726;DHT22;71135;16.738;-14.648;2023-09-12T07:44:10;21.90;72.80
81726;DHT22;71135;16.738;-14.648;2023-09-12T07:46:41;22.00;72.70
81726;DHT22;71135;16.738;-14.648;2023-09-12T07:49:10;22.00;72.60
81726;DHT22;71135;16.738;-14.648;2023-09-12T07:51:40;22.10;72.50
81726;DHT22;71135;16.738;-14.648;2023-09-12T07:54:09;22.10;72.40
81726;DHT22;71135;16.738;-14.648;2023-09-12T07:56:38;22.20;72.40
81726;DHT22;71135;16.738;-14.648;2023-09-12T07:59:10;22.20;72.50
81726;DHT22;71135;16.738;-14.648;2023-09-12T08:01:40;22.20;72.50
81726;DHT22;71135;16.738;-14.648;2023-09-12T08:04:09;22.30;72.40
81726;DHT22;71135;16.738;-14.648;2023-09-12T08:06:40;22.30;72.20
81726;DHT22;71135;16.738;-14.648;2023-09-12T08:09:10;22.40;72.10
81726;DHT22;71135;16.738;-14.648;2023-09-12T08:11:39;22.50;72.10
81726;DHT22;71135;16.738;-14.648;2023-09-12T08:14:10;22.60;71.90
81726;DHT22;71135;16.738;-14.648;2023-09-12T08:16:40;22.70;71.80
81726;DHT22;71135;16.738;-14.648;2023-09-12T08:19:09;22.70;71.80
81726;DHT22;71135;16.738;-14.648;2023-09-12T08:21:38;22.80;71.50
81726;DHT22;71135;16.738;-14.648;2023-09-12T08:24:07;22.90;71.50
81726;DHT22;71135;16.738;-14.648;2023-09-12T08:26:36;23.00;71.50
81726;DHT22;71135;16.738;-14.648;2023-09-12T08:29:06;23.10;71.60
81726;DHT22;71135;16.738;-14.648;2023-09-12T08:31:37;23.30;71.40
81726;DHT22;71135;16.738;-14.648;2023-09-12T08:34:07;23.40;71.40
81726;DHT22;71135;16.738;-14.648;2023-09-12T08:36:36;23.50;70.90
81726;DHT22;71135;16.738;-14.648;2023-09-12T08:39:05;23.50;70.60
81726;DHT22;71135;16.738;-14.648;2023-09-12T08:41:35;23.50;70.70
81726;DHT22;71135;16.738;-14.648;2023-09-12T08:44:05;23.60;71.10
81726;DHT22;71135;16.738;-14.648;2023-09-12T08:46:38;23.60;70.80
81726;DHT22;71135;16.738;-14.648;2023-09-12T08:49:08;23.60;70.80
81726;DHT22;71135;16.738;-14.648;2023-09-12T08:51:38;23.80;70.70
81726;DHT22;71135;16.738;-14.648;2023-09-12T08:54:08;24.00;70.30
81726;DHT22;71135;16.738;-14.648;2023-09-12T08:56:40;24.20;69.60
81726;DHT22;71135;16.738;-14.648;2023-09-12T08:59:11;24.30;69.20
81726;DHT22;71135;16.738;-14.648;2023-09-12T09:01:43;24.40;69.00
81726;DHT22;71135;16.738;-14.648;2023-09-12T09:04:16;24.40;68.80
81726;DHT22;71135;16.738;-14.648;2023-09-12T09:06:46;24.40;68.50
81726;DHT22;71135;16.738;-14.648;2023-09-12T09:09:16;24.40;68.50
81726;DHT22;71135;16.738;-14.648;2023-09-12T09:11:46;24.50;68.20
81726;DHT22;71135;16.738;-14.648;2023-09-12T09:14:15;24.50;68.20
81726;DHT22;71135;16.738;-14.648;2023-09-12T09:16:49;24.60;68.20
81726;DHT22;71135;16.738;-14.648;2023-09-12T09:19:19;24.80;68.40
81726;DHT22;71135;16.738;-14.648;2023-09-12T09:21:48;24.90;68.60
81726;DHT22;71135;16.738;-14.648;2023-09-12T09:24:18;25.00;68.00
81726;DHT22;71135;16.738;-14.648;2023-09-12T09:26:49;25.00;67.90
81726;DHT22;71135;16.738;-14.648;2023-09-12T09:29:25;25.10;67.50
81726;DHT22;71135;16.738;-14.648;2023-09-12T09:32:00;25.00;67.20
81726;DHT22;71135;16.738;-14.648;2023-09-12T09:34:31;25.00;66.80
81726;DHT22;71135;16.738;-14.648;2023-09-12T09:37:03;25.00;66.50
81726;DHT22;71135;16.738;-14.648;2023-09-12T09:39:33;25.10;66.70
81726;DHT22;71135;16.738;-14.648;2023-09-12T09:42:10;25.30;66.60
81726;DHT22;71135;16.738;-14.648;2023-09-12T09:44:39;25.50;66.00
81726;DHT22;71135;16.738;-14.648;2023-09-12T09:47:11;25.60;66.00
81726;DHT22;71135;16.738;-14.648;2023-09-12T09:49:41;25.80;66.10
81726;DHT22;71135;16.738;-14.648;2023-09-12T09:52:14;26.00;66.10
81726;DHT22;71135;16.738;-14.648;2023-09-12T09:54:44;26.20;66.00
81726;DHT22;71135;16.738;-14.648;2023-09-12T09:57:14;26.30;65.30
81726;DHT22;71135;16.738;-14.648;2023-09-12T09:59:49;26.30;65.30
81726;DHT22;71135;16.738;-14.648;2023-09-12T10:02:22;26.30;64.70
81726;DHT22;71135;16.738;-14.648;2023-09-12T10:04:56;26.30;65.10
81726;DHT22;71135;16.738;-14.648;2023-09-12T10:07:25;26.20;65.00
81726;DHT22;71135;16.738;-14.648;2023-09-12T10:09:56;26.10;64.90
81726;DHT22;71135;16.738;-14.648;2023-09-12T10:12:25;26.00;65.20
81726;DHT22;71135;16.738;-14.648;2023-09-12T10:14:57;26.00;65.00
81726;DHT22;71135;16.738;-14.648;2023-09-12T10:17:36;25.90;64.50
81726;DHT22;71135;16.738;-14.648;2023-09-12T10:20:11;25.90;65.00
81726;DHT22;71135;16.738;-14.648;2023-09-12T10:22:49;26.00;64.70
81726;DHT22;71135;16.738;-14.648;2023-09-12T10:25:21;26.10;64.50
81726;DHT22;71135;16.738;-14.648;2023-09-12T10:27:52;26.20;65.20
81726;DHT22;71135;16.738;-14.648;2023-09-12T10:30:22;26.50;64.40
81726;DHT22;71135;16.738;-14.648;2023-09-12T10:32:54;27.10;63.40
81726;DHT22;71135;16.738;-14.648;2023-09-12T10:35:23;27.50;62.20
81726;DHT22;71135;16.738;-14.648;2023-09-12T10:37:54;28.00;62.20
81726;DHT22;71135;16.738;-14.648;2023-09-12T10:40:26;28.10;61.50
81726;DHT22;71135;16.738;-14.648;2023-09-12T10:42:57;28.90;61.50
81726;DHT22;71135;16.738;-14.648;2023-09-12T10:45:28;30.00;59.70
81726;DHT22;71135;16.738;-14.648;2023-09-12T10:48:00;30.80;57.70
81726;DHT22;71135;16.738;-14.648;2023-09-12T10:50:29;30.90;57.00
81726;DHT22;71135;16.738;-14.648;2023-09-12T10:53:10;30.60;56.90
81726;DHT22;71135;16.738;-14.648;2023-09-12T10:55:39;30.10;56.90
81726;DHT22;71135;16.738;-14.648;2023-09-12T10:58:09;29.70;57.90
81726;DHT22;71135;16.738;-14.648;2023-09-12T11:00:38;29.50;58.00
81726;DHT22;71135;16.738;-14.648;2023-09-12T11:03:38;29.20;57.90
81726;DHT22;71135;16.738;-14.648;2023-09-12T11:06:21;29.10;58.90
81726;DHT22;71135;16.738;-14.648;2023-09-12T11:09:17;29.10;59.00
81726;DHT22;71135;16.738;-14.648;2023-09-12T11:11:48;29.00;58.90
81726;DHT22;71135;16.738;-14.648;2023-09-12T11:14:17;28.60;58.70
81726;DHT22;71135;16.738;-14.648;2023-09-12T11:19:49;28.10;59.30
81726;DHT22;71135;16.738;-14.648;2023-09-12T11:22:26;27.80;60.20
81726;DHT22;71135;16.738;-14.648;2023-09-12T11:24:57;27.90;60.60
81726;DHT22;71135;16.738;-14.648;2023-09-12T11:27:32;27.80;60.40
81726;DHT22;71135;16.738;-14.648;2023-09-12T11:30:13;27.80;60.80
81726;DHT22;71135;16.738;-14.648;2023-09-12T11:32:45;27.90;61.00
81726;DHT22;71135;16.738;-14.648;2023-09-12T11:35:23;27.80;60.20
81726;DHT22;71135;16.738;-14.648;2023-09-12T11:37:54;27.50;60.20
81726;DHT22;71135;16.738;-14.648;2023-09-12T11:40:25;27.40;60.80
81726;DHT22;71135;16.738;-14.648;2023-09-12T11:42:54;27.30;60.60
81726;DHT22;71135;16.738;-14.648;2023-09-12T11:45:23;27.40;60.70
81726;DHT22;71135;16.738;-14.648;2023-09-12T11:47:54;27.60;60.60
81726;DHT22;71135;16.738;-14.648;2023-09-12T11:50:29;27.70;60.50
81726;DHT22;71135;16.738;-14.648;2023-09-12T11:53:00;27.90;59.70
81726;DHT22;71135;16.738;-14.648;2023-09-12T11:55:31;27.90;59.80
81726;DHT22;71135;16.738;-14.648;2023-09-12T11:58:01;28.00;60.20
81726;DHT22;71135;16.738;-14.648;2023-09-12T12:00:30;28.10;59.40
81726;DHT22;71135;16.738;-14.648;2023-09-12T12:03:01;28.10;58.90
81726;DHT22;71135;16.738;-14.648;2023-09-12T12:05:34;28.30;58.70
81726;DHT22;71135;16.738;-14.648;2023-09-12T12:08:04;28.30;58.60
81726;DHT22;71135;16.738;-14.648;2023-09-12T12:10:34;28.40;58.70
81726;DHT22;71135;16.738;-14.648;2023-09-12T12:13:05;28.30;58.20
81726;DHT22;71135;16.738;-14.648;2023-09-12T12:15:34;28.30;59.00
81726;DHT22;71135;16.738;-14.648;2023-09-12T12:18:04;28.30;58.60
81726;DHT22;71135;16.738;-14.648;2023-09-12T12:20:36;28.10;58.60
81726;DHT22;71135;16.738;-14.648;2023-09-12T12:23:05;27.90;58.40
81726;DHT22;71135;16.738;-14.648;2023-09-12T12:25:35;27.70;58.70
81726;DHT22;71135;16.738;-14.648;2023-09-12T12:28:04;27.60;59.00
81726;DHT22;71135;16.738;-14.648;2023-09-12T12:30:35;27.50;59.30
81726;DHT22;71135;16.738;-14.648;2023-09-12T12:33:07;27.50;59.60
81726;DHT22;71135;16.738;-14.648;2023-09-12T12:35:39;27.50;60.30
81726;DHT22;71135;16.738;-14.648;2023-09-12T12:38:08;27.40;60.10
81726;DHT22;71135;16.738;-14.648;2023-09-12T12:40:41;27.20;60.30
81726;DHT22;71135;16.738;-14.648;2023-09-12T12:43:16;27.10;60.00
81726;DHT22;71135;16.738;-14.648;2023-09-12T12:45:52;27.10;59.60
81726;DHT22;71135;16.738;-14.648;2023-09-12T12:48:31;27.10;59.60
81726;DHT22;71135;16.738;-14.648;2023-09-12T12:51:16;27.00;59.90
81726;DHT22;71135;16.738;-14.648;2023-09-12T12:53:47;26.80;60.20
81726;DHT22;71135;16.738;-14.648;2023-09-12T12:56:17;26.60;60.70
81726;DHT22;71135;16.738;-14.648;2023-09-12T12:58:48;26.50;60.80
81726;DHT22;71135;16.738;-14.648;2023-09-12T13:01:18;26.50;60.90
81726;DHT22;71135;16.738;-14.648;2023-09-12T13:03:47;26.40;61.40
81726;DHT22;71135;16.738;-14.648;2023-09-12T13:06:20;26.30;61.40
81726;DHT22;71135;16.738;-14.648;2023-09-12T13:08:49;26.20;61.40
81726;DHT22;71135;16.738;-14.648;2023-09-12T13:11:19;26.10;61.80
81726;DHT22;71135;16.738;-14.648;2023-09-12T13:13:49;26.00;62.60
81726;DHT22;71135;16.738;-14.648;2023-09-12T13:16:19;26.00;62.80
81726;DHT22;71135;16.738;-14.648;2023-09-12T13:18:48;26.00;62.90
81726;DHT22;71135;16.738;-14.648;2023-09-12T13:21:20;25.80;62.90
81726;DHT22;71135;16.738;-14.648;2023-09-12T13:23:49;25.80;63.10
81726;DHT22;71135;16.738;-14.648;2023-09-12T13:26:18;25.70;63.00
81726;DHT22;71135;16.738;-14.648;2023-09-12T13:28:47;25.60;63.60
81726;DHT22;71135;16.738;-14.648;2023-09-12T13:31:17;25.70;63.60
81726;DHT22;71135;16.738;-14.648;2023-09-12T13:33:46;25.80;63.40
81726;DHT22;71135;16.738;-14.648;2023-09-12T13:36:15;25.80;63.30
81726;DHT22;71135;16.738;-14.648;2023-09-12T13:38:47;25.80;63.50
81726;DHT22;71135;16.738;-14.648;2023-09-12T13:41:17;25.80;63.60
81726;DHT22;71135;16.738;-14.648;2023-09-12T13:43:48;25.70;63.70
81726;DHT22;71135;16.738;-14.648;2023-09-12T13:46:17;25.70;63.60
81726;DHT22;71135;16.738;-14.648;2023-09-12T13:48:46;25.60;63.80
81726;DHT22;71135;16.738;-14.648;2023-09-12T13:51:16;25.70;64.20
81726;DHT22;71135;16.738;-14.648;2023-09-12T13:53:47;25.70;63.80
81726;DHT22;71135;16.738;-14.648;2023-09-12T13:56:16;25.70;64.00
81726;DHT22;71135;16.738;-14.648;2023-09-12T13:58:46;25.80;64.60
81726;DHT22;71135;16.738;-14.648;2023-09-12T14:01:17;25.80;64.70
81726;DHT22;71135;16.738;-14.648;2023-09-12T14:03:49;25.80;64.50
81726;DHT22;71135;16.738;-14.648;2023-09-12T14:06:19;25.80;65.10
81726;DHT22;71135;16.738;-14.648;2023-09-12T14:08:51;25.80;64.50
81726;DHT22;71135;16.738;-14.648;2023-09-12T14:11:21;25.80;64.80
81726;DHT22;71135;16.738;-14.648;2023-09-12T14:13:50;26.00;65.40
81726;DHT22;71135;16.738;-14.648;2023-09-12T14:16:19;26.20;64.80
81726;DHT22;71135;16.738;-14.648;2023-09-12T14:18:48;26.50;64.20
81726;DHT22;71135;16.738;-14.648;2023-09-12T14:21:17;26.70;63.10
81726;DHT22;71135;16.738;-14.648;2023-09-12T14:23:46;26.70;62.00
81726;DHT22;71135;16.738;-14.648;2023-09-12T14:26:18;26.70;61.50
81726;DHT22;71135;16.738;-14.648;2023-09-12T14:28:47;26.60;60.80
81726;DHT22;71135;16.738;-14.648;2023-09-12T14:31:17;26.50;60.20
81726;DHT22;71135;16.738;-14.648;2023-09-12T14:33:46;26.40;60.60
81726;DHT22;71135;16.738;-14.648;2023-09-12T14:36:15;26.20;61.40
81726;DHT22;71135;16.738;-14.648;2023-09-12T14:38:45;26.00;61.70
81726;DHT22;71135;16.738;-14.648;2023-09-12T14:41:14;26.00;61.40
81726;DHT22;71135;16.738;-14.648;2023-09-12T14:43:46;25.90;61.70
81726;DHT22;71135;16.738;-14.648;2023-09-12T14:46:15;26.00;62.00
81726;DHT22;71135;16.738;-14.648;2023-09-12T14:48:44;26.00;62.00
81726;DHT22;71135;16.738;-14.648;2023-09-12T14:51:14;26.00;61.70
81726;DHT22;71135;16.738;-14.648;2023-09-12T14:53:43;26.00;61.50
81726;DHT22;71135;16.738;-14.648;2023-09-12T14:56:12;26.00;61.90
81726;DHT22;71135;16.738;-14.648;2023-09-12T14:58:41;26.00;62.50
81726;DHT22;71135;16.738;-14.648;2023-09-12T15:01:13;26.00;61.90
81726;DHT22;71135;16.738;-14.648;2023-09-12T15:03:42;26.00;61.90
81726;DHT22;71135;16.738;-14.648;2023-09-12T15:06:11;25.90;61.60
81726;DHT22;71135;16.738;-14.648;2023-09-12T15:08:41;25.80;62.00
81726;DHT22;71135;16.738;-14.648;2023-09-12T15:11:10;25.80;62.20
81726;DHT22;71135;16.738;-14.648;2023-09-12T15:13:39;25.80;62.20
81726;DHT22;71135;16.738;-14.648;2023-09-12T15:16:09;25.70;62.20
81726;DHT22;71135;16.738;-14.648;2023-09-12T15:18:40;25.60;62.40
81726;DHT22;71135;16.738;-14.648;2023-09-12T15:21:10;25.60;62.70
81726;DHT22;71135;16.738;-14.648;2023-09-12T15:23:39;25.50;62.90
81726;DHT22;71135;16.738;-14.648;2023-09-12T15:26:08;25.50;63.00
81726;DHT22;71135;16.738;-14.648;2023-09-12T15:28:37;25.40;63.00